Terminal Aerodrome Forecast
Issued by NWS

Home | Current Version | Previous Version | Text Only | Print | Product List | Glossary On
Versions: 1 2 3 4 5 6 7 8 9 10 11 12 13 14 15 16 17 18
000
FTUS43 KILX 012200 AAB
TAFCMI
TAF AMD
KCMI 012236Z 0123/0218 27005KT 1/4SM FG OVC004
     FM020100 33012KT 2SM -SN BR OVC004
     FM020200 34022G30KT 2SM -SN BLSN OVC008
     FM021500 31012KT P6SM BKN020=

USA.gov is the U.S. government's official web portal to all federal, state and local government web resources and services.